Time;durP1;ratioP1;P1;durP2;ratioP2;P2;SDS_P1;SDS_P2;PMS_P1;PMS_P2;Temp;Humidity;BMP_temperature;BMP_pressure;BME280_temperature;BME280_humidity;BME280_pressure;Samples;Min_cycle;Max_cycle;Signal;HPM_P1;HPM_P2
2023/07/31 00:01:31;;;;;;;7.60;4.93;;;;;;;;;;10010723;29;20440;-82
2023/07/31 00:06:32;;;;;;;9.45;6.00;;;;;;;;;;10008625;29;20034;-82
2023/07/31 00:11:33;;;;;;;8.98;6.07;;;;;;;;;;9997935;29;20083;-82
2023/07/31 00:16:34;;;;;;;8.68;6.10;;;;;;;;;;10004300;29;20041;-82
2023/07/31 00:21:35;;;;;;;9.88;6.75;;;;;;;;;;10005398;29;20033;-83
2023/07/31 00:26:36;;;;;;;7.63;6.45;;;;;;;;;;10007383;29;20033;-83
2023/07/31 00:31:37;;;;;;;7.18;5.97;;;;;;;;;;10005811;29;20049;-82
2023/07/31 00:36:38;;;;;;;8.77;6.55;;;;;;;;;;10002098;29;20046;-82
2023/07/31 00:41:39;;;;;;;6.88;5.88;;;;;;;;;;10001748;29;20126;-82
2023/07/31 00:46:40;;;;;;;8.32;6.20;;;;;;;;;;10003999;29;20065;-82
2023/07/31 00:51:41;;;;;;;8.25;6.40;;;;;;;;;;10004466;29;20041;-81
2023/07/31 00:56:43;;;;;;;9.73;6.82;;;;;;;;;;9999683;29;20034;-82
2023/07/31 01:01:44;;;;;;;9.32;6.50;;;;;;;;;;9996567;29;20033;-82
2023/07/31 01:06:45;;;;;;;10.00;6.70;;;;;;;;;;9993649;29;20094;-80
2023/07/31 01:11:48;;;;;;;7.22;4.82;;;;;;;;;;9999181;29;20060;-81
2023/07/31 01:16:49;;;;;;;4.38;3.88;;;;;;;;;;10007267;29;20053;-81
2023/07/31 01:22:09;;;;;;;3.70;3.30;;;;;;;;;;10006563;29;20508;-81
2023/07/31 01:27:12;;;;;;;5.32;3.45;;;;;;;;;;9975836;29;20399;-83
2023/07/31 01:32:14;;;;;;;5.25;3.55;;;;;;;;;;9988490;29;20121;-83
2023/07/31 01:37:15;;;;;;;3.40;3.03;;;;;;;;;;10005827;29;20068;-82
2023/07/31 01:42:16;;;;;;;5.65;3.20;;;;;;;;;;9997899;29;20042;-82
2023/07/31 01:47:17;;;;;;;4.30;3.42;;;;;;;;;;10012130;29;20061;-82
2023/07/31 01:52:18;;;;;;;4.03;3.33;;;;;;;;;;10014998;29;20080;-82
2023/07/31 01:57:19;;;;;;;3.60;3.10;;;;;;;;;;10024244;24;20451;-82
2023/07/31 02:02:20;;;;;;;8.63;4.25;;;;;;;;;;10014502;29;20029;-83
2023/07/31 02:07:21;;;;;;;6.20;3.75;;;;;;;;;;10014696;29;20183;-82
2023/07/31 02:12:22;;;;;;;6.38;3.75;;;;;;;;;;10013922;29;20075;-82
2023/07/31 02:17:23;;;;;;;7.47;4.28;;;;;;;;;;10014354;29;20125;-81
2023/07/31 02:22:24;;;;;;;4.95;3.60;;;;;;;;;;10009602;29;20037;-81
2023/07/31 02:27:27;;;;;;;4.25;3.85;;;;;;;;;;10010378;29;20038;-82
2023/07/31 02:32:28;;;;;;;8.52;4.50;;;;;;;;;;9996684;29;20050;-82
2023/07/31 02:37:29;;;;;;;5.00;4.10;;;;;;;;;;9999811;29;20065;-82
2023/07/31 02:42:30;;;;;;;6.38;4.32;;;;;;;;;;9984454;29;20042;-83
2023/07/31 02:47:31;;;;;;;4.82;4.10;;;;;;;;;;10009350;29;20542;-81
2023/07/31 02:52:32;;;;;;;5.65;3.97;;;;;;;;;;10002137;29;20425;-81
2023/07/31 02:57:33;;;;;;;6.25;4.53;;;;;;;;;;10008031;29;20058;-81
2023/07/31 03:02:35;;;;;;;3.97;3.58;;;;;;;;;;9996880;29;20562;-82
2023/07/31 03:07:36;;;;;;;6.32;3.65;;;;;;;;;;9995190;29;20042;-81
2023/07/31 03:12:37;;;;;;;4.40;3.80;;;;;;;;;;10012003;29;20079;-82
2023/07/31 03:17:38;;;;;;;4.18;3.75;;;;;;;;;;10009149;29;20034;-82
2023/07/31 03:22:39;;;;;;;4.43;3.65;;;;;;;;;;10006973;24;20454;-81
2023/07/31 03:27:40;;;;;;;4.57;4.10;;;;;;;;;;10012033;29;20038;-81
2023/07/31 03:32:41;;;;;;;7.93;4.50;;;;;;;;;;10010879;29;20049;-83
2023/07/31 03:37:42;;;;;;;5.72;4.07;;;;;;;;;;10011787;29;20666;-82
2023/07/31 03:42:43;;;;;;;4.00;3.58;;;;;;;;;;10011069;29;20050;-85
2023/07/31 03:47:44;;;;;;;3.90;3.50;;;;;;;;;;10010764;29;20658;-82
2023/07/31 03:52:45;;;;;;;6.53;3.60;;;;;;;;;;10011318;29;20050;-82
2023/07/31 03:57:46;;;;;;;4.20;3.17;;;;;;;;;;9994060;29;20034;-82
2023/07/31 04:02:49;;;;;;;6.28;3.55;;;;;;;;;;10008698;29;20033;-83
2023/07/31 04:07:50;;;;;;;4.43;3.30;;;;;;;;;;9993011;29;20059;-84
2023/07/31 04:12:51;;;;;;;8.10;3.90;;;;;;;;;;10010701;29;20585;-83
2023/07/31 04:17:53;;;;;;;4.50;3.55;;;;;;;;;;10010272;29;20236;-86
2023/07/31 04:22:54;;;;;;;5.45;3.25;;;;;;;;;;9953078;29;20065;-85
2023/07/31 04:27:54;;;;;;;5.45;3.05;;;;;;;;;;9970652;29;20039;-84
2023/07/31 04:32:55;;;;;;;5.38;3.58;;;;;;;;;;9945413;29;20064;-84
2023/07/31 04:37:56;;;;;;;5.28;3.38;;;;;;;;;;9971727;29;20558;-83
2023/07/31 04:42:57;;;;;;;8.55;3.20;;;;;;;;;;9967051;29;20384;-83
2023/07/31 04:47:58;;;;;;;5.25;3.13;;;;;;;;;;9969689;29;20152;-82
2023/07/31 04:52:59;;;;;;;6.82;2.88;;;;;;;;;;9971823;29;20727;-81
2023/07/31 04:58:00;;;;;;;5.30;2.83;;;;;;;;;;9962839;29;20042;-81
2023/07/31 05:03:01;;;;;;;4.30;3.00;;;;;;;;;;9965026;29;20038;-82
2023/07/31 05:08:02;;;;;;;3.85;2.33;;;;;;;;;;9970990;29;20121;-81
2023/07/31 05:13:03;;;;;;;3.60;2.80;;;;;;;;;;9971583;29;20039;-83
2023/07/31 05:18:04;;;;;;;6.93;4.78;;;;;;;;;;9971492;29;20030;-82
2023/07/31 05:23:06;;;;;;;46.08;25.00;;;;;;;;;;9969516;29;20073;-81
2023/07/31 05:28:08;;;;;;;25.00;12.32;;;;;;;;;;9970652;29;20097;-81
2023/07/31 05:33:09;;;;;;;10.18;4.88;;;;;;;;;;9971309;29;20050;-81
2023/07/31 05:38:10;;;;;;;4.68;3.05;;;;;;;;;;9971019;29;20027;-83
2023/07/31 05:43:11;;;;;;;5.90;3.70;;;;;;;;;;9970608;29;20121;-82
2023/07/31 05:48:12;;;;;;;5.50;3.47;;;;;;;;;;9969317;29;20037;-81
2023/07/31 05:53:13;;;;;;;6.55;2.95;;;;;;;;;;9970794;29;20046;-81
2023/07/31 05:58:14;;;;;;;6.53;2.90;;;;;;;;;;9970669;29;20563;-81
2023/07/31 06:03:15;;;;;;;3.85;2.55;;;;;;;;;;9969638;29;20493;-81
2023/07/31 06:08:16;;;;;;;4.55;2.70;;;;;;;;;;9970082;29;20037;-82
2023/07/31 06:13:17;;;;;;;4.10;2.90;;;;;;;;;;9968887;29;20038;-82
2023/07/31 06:18:18;;;;;;;5.25;2.80;;;;;;;;;;9969583;29;20040;-83
2023/07/31 06:23:20;;;;;;;5.13;2.63;;;;;;;;;;9969914;29;20058;-81
2023/07/31 06:28:21;;;;;;;6.28;2.88;;;;;;;;;;9976268;29;20047;-82
2023/07/31 06:33:22;;;;;;;4.40;2.65;;;;;;;;;;9975525;29;20060;-82
2023/07/31 06:38:25;;;;;;;6.72;2.85;;;;;;;;;;9974169;29;20121;-82
2023/07/31 06:43:26;;;;;;;4.13;2.17;;;;;;;;;;9971081;29;20026;-82
2023/07/31 06:48:27;;;;;;;5.60;2.45;;;;;;;;;;9974257;29;20042;-81
2023/07/31 06:53:28;;;;;;;4.32;2.47;;;;;;;;;;9969529;29;20030;-80
2023/07/31 06:58:29;;;;;;;5.18;2.63;;;;;;;;;;9974289;29;20419;-81
2023/07/31 07:03:30;;;;;;;4.10;2.58;;;;;;;;;;9974381;29;20041;-82
2023/07/31 07:08:31;;;;;;;4.93;2.08;;;;;;;;;;9975299;29;20053;-81
2023/07/31 07:13:32;;;;;;;3.15;2.20;;;;;;;;;;9974197;29;20065;-82
2023/07/31 07:18:34;;;;;;;5.03;1.88;;;;;;;;;;9997245;24;20483;-82
2023/07/31 07:23:35;;;;;;;3.40;1.98;;;;;;;;;;10014039;29;20061;-82
2023/07/31 07:28:37;;;;;;;4.95;2.00;;;;;;;;;;10019206;29;20038;-83
2023/07/31 07:33:38;;;;;;;4.30;1.77;;;;;;;;;;10012129;29;20038;-82
2023/07/31 07:38:39;;;;;;;3.97;2.25;;;;;;;;;;10010851;29;20479;-82
2023/07/31 07:43:40;;;;;;;5.07;2.20;;;;;;;;;;10011331;29;20175;-82
2023/07/31 07:48:41;;;;;;;3.92;2.22;;;;;;;;;;10011110;29;20066;-82
2023/07/31 07:53:42;;;;;;;4.45;2.13;;;;;;;;;;10010290;29;20072;-82
2023/07/31 07:58:43;;;;;;;2.97;1.90;;;;;;;;;;10003785;29;20215;-82
2023/07/31 08:03:44;;;;;;;5.43;2.75;;;;;;;;;;10008248;29;20030;-82
2023/07/31 08:08:45;;;;;;;6.95;1.95;;;;;;;;;;10009037;29;20049;-81
2023/07/31 08:13:46;;;;;;;4.43;2.25;;;;;;;;;;10006308;29;20054;-81
2023/07/31 08:18:48;;;;;;;4.10;2.08;;;;;;;;;;9995939;29;20054;-81
2023/07/31 08:23:49;;;;;;;6.38;2.35;;;;;;;;;;9987385;29;20476;-82
2023/07/31 08:28:50;;;;;;;5.32;1.58;;;;;;;;;;9985129;29;20038;-82
2023/07/31 08:33:51;;;;;;;7.28;2.35;;;;;;;;;;9986060;29;20040;-81
2023/07/31 08:38:52;;;;;;;4.50;2.13;;;;;;;;;;9991204;29;20383;-81
2023/07/31 08:43:54;;;;;;;3.72;2.33;;;;;;;;;;9990660;29;20064;-81
2023/07/31 08:48:56;;;;;;;4.35;1.88;;;;;;;;;;9969915;29;20090;-81
2023/07/31 08:53:57;;;;;;;5.20;2.30;;;;;;;;;;9986029;29;20046;-81
2023/07/31 08:58:59;;;;;;;5.38;2.42;;;;;;;;;;9976275;29;20554;-82
2023/07/31 09:04:02;;;;;;;3.63;2.38;;;;;;;;;;9994596;29;20045;-82
2023/07/31 09:09:03;;;;;;;5.20;2.55;;;;;;;;;;10007297;29;20042;-82
2023/07/31 09:14:08;;;;;;;3.90;2.47;;;;;;;;;;10007668;29;20069;-82
2023/07/31 09:19:09;;;;;;;4.47;2.13;;;;;;;;;;10010252;29;20105;-82
2023/07/31 09:24:15;;;;;;;5.35;2.08;;;;;;;;;;10006440;29;20040;-83
2023/07/31 09:29:19;;;;;;;4.13;1.85;;;;;;;;;;9985827;29;20041;-81
2023/07/31 09:34:21;;;;;;;7.22;2.30;;;;;;;;;;9953646;29;20045;-84
2023/07/31 09:39:22;;;;;;;2.25;1.50;;;;;;;;;;9999734;29;20041;-80
2023/07/31 09:44:38;;;;;;;6.75;2.30;;;;;;;;;;10002273;29;20094;-81
2023/07/31 09:49:39;;;;;;;4.40;2.03;;;;;;;;;;10007186;29;20057;-81
2023/07/31 09:54:40;;;;;;;5.93;2.30;;;;;;;;;;10006862;29;20471;-83
2023/07/31 09:59:41;;;;;;;3.03;1.98;;;;;;;;;;10009588;29;20065;-82
2023/07/31 10:04:44;;;;;;;3.67;2.03;;;;;;;;;;9997261;29;20034;-83
2023/07/31 10:09:45;;;;;;;4.97;2.00;;;;;;;;;;10006702;29;20449;-85
2023/07/31 10:14:46;;;;;;;3.97;1.88;;;;;;;;;;9992579;29;20047;-84
2023/07/31 10:19:48;;;;;;;2.85;1.60;;;;;;;;;;9984279;29;20066;-84
2023/07/31 10:24:49;;;;;;;4.40;2.00;;;;;;;;;;9988957;29;20041;-84
2023/07/31 10:29:51;;;;;;;4.35;1.75;;;;;;;;;;9975710;29;20031;-84
2023/07/31 10:56:38;;;;;;;4.28;1.75;;;;;;;;;;10014014;29;20057;-84
2023/07/31 11:07:37;;;;;;;5.90;2.10;;;;;;;;;;10087167;24;20780;-84
2023/07/31 11:13:18;;;;;;;5.60;1.70;;;;;;;;;;9994408;29;20106;-84
2023/07/31 11:59:43;;;;;;;5.43;1.70;;;;;;;;;;10011192;29;20496;-83
2023/07/31 12:04:44;;;;;;;2.70;1.33;;;;;;;;;;10001991;29;20037;-85
2023/07/31 12:20:35;;;;;;;4.35;1.67;;;;;;;;;;10610871;24;20430;-85
2023/07/31 12:25:36;;;;;;;3.42;1.90;;;;;;;;;;9992988;29;20618;-84
2023/07/31 12:30:38;;;;;;;3.00;1.67;;;;;;;;;;10007734;29;20105;-84
2023/07/31 12:35:41;;;;;;;3.17;1.60;;;;;;;;;;10001767;29;20409;-84
2023/07/31 12:40:42;;;;;;;3.50;1.38;;;;;;;;;;9985864;29;20026;-84
2023/07/31 12:45:44;;;;;;;3.35;1.67;;;;;;;;;;9995542;29;20042;-84
2023/07/31 12:50:45;;;;;;;3.05;1.52;;;;;;;;;;9988430;29;20040;-83
2023/07/31 12:55:46;;;;;;;6.68;1.80;;;;;;;;;;10004169;29;20656;-84
2023/07/31 13:00:47;;;;;;;7.93;2.20;;;;;;;;;;9991408;29;20118;-83
2023/07/31 13:05:48;;;;;;;3.95;1.88;;;;;;;;;;9992868;29;20030;-84
2023/07/31 13:10:49;;;;;;;4.15;1.42;;;;;;;;;;10006079;29;20042;-82
2023/07/31 13:15:50;;;;;;;3.72;1.80;;;;;;;;;;10006932;29;20076;-83
2023/07/31 13:20:51;;;;;;;4.85;1.60;;;;;;;;;;9993749;29;20084;-81
2023/07/31 13:25:52;;;;;;;5.57;1.75;;;;;;;;;;9989908;29;20022;-82
2023/07/31 13:30:53;;;;;;;4.35;2.05;;;;;;;;;;9994476;29;20040;-81
2023/07/31 13:35:54;;;;;;;5.80;1.65;;;;;;;;;;9995177;29;20033;-81
2023/07/31 13:40:56;;;;;;;4.00;1.55;;;;;;;;;;10005638;29;20038;-82
2023/07/31 13:45:57;;;;;;;3.05;1.40;;;;;;;;;;9991285;29;20577;-82
2023/07/31 13:50:58;;;;;;;4.57;1.40;;;;;;;;;;10007255;29;20038;-83
2023/07/31 13:55:59;;;;;;;3.72;1.83;;;;;;;;;;9997377;29;20042;-82
2023/07/31 14:01:00;;;;;;;2.15;1.40;;;;;;;;;;10007552;29;20034;-81
2023/07/31 14:06:01;;;;;;;4.63;1.92;;;;;;;;;;9996517;29;20463;-82
2023/07/31 14:11:02;;;;;;;3.67;1.60;;;;;;;;;;9991408;29;20034;-81
2023/07/31 14:16:03;;;;;;;2.90;1.52;;;;;;;;;;10005935;29;20042;-83
2023/07/31 14:21:04;;;;;;;3.63;1.50;;;;;;;;;;10001472;29;20507;-83
2023/07/31 14:26:05;;;;;;;4.43;2.05;;;;;;;;;;10004217;29;20113;-84
2023/07/31 14:31:06;;;;;;;3.42;1.95;;;;;;;;;;10000801;29;20049;-83
2023/07/31 14:36:07;;;;;;;5.85;2.13;;;;;;;;;;9976544;29;20034;-84
2023/07/31 14:41:12;;;;;;;4.28;1.88;;;;;;;;;;10002284;29;20040;-83
2023/07/31 14:46:14;;;;;;;6.85;2.05;;;;;;;;;;9983774;29;20123;-83
2023/07/31 14:56:56;;;;;;;4.13;1.90;;;;;;;;;;10010930;29;20038;-83
2023/07/31 15:51:11;;;;;;;3.47;1.65;;;;;;;;;;10011144;29;20045;-84
2023/07/31 16:01:53;;;;;;;4.13;1.40;;;;;;;;;;9998903;29;20033;-84
2023/07/31 16:06:54;;;;;;;4.25;1.70;;;;;;;;;;10000112;29;20060;-84
2023/07/31 16:11:55;;;;;;;1.88;1.40;;;;;;;;;;9993267;29;20052;-85
2023/07/31 16:16:57;;;;;;;2.53;1.60;;;;;;;;;;10008429;29;20681;-86
2023/07/31 16:21:58;;;;;;;1.98;1.30;;;;;;;;;;9981833;29;20054;-85
2023/07/31 16:26:59;;;;;;;3.47;1.65;;;;;;;;;;9972869;29;20083;-84
2023/07/31 16:32:00;;;;;;;2.20;1.50;;;;;;;;;;9973838;29;20086;-88
2023/07/31 16:37:01;;;;;;;4.05;1.88;;;;;;;;;;9972366;29;20150;-85
2023/07/31 16:42:06;;;;;;;5.60;1.80;;;;;;;;;;9972707;29;20035;-85
2023/07/31 16:47:07;;;;;;;2.13;1.48;;;;;;;;;;9970509;29;20064;-86
2023/07/31 16:52:08;;;;;;;3.78;1.90;;;;;;;;;;9971561;29;20034;-86
2023/07/31 16:57:09;;;;;;;6.57;2.25;;;;;;;;;;9971061;29;20519;-84
2023/07/31 17:02:10;;;;;;;4.57;2.17;;;;;;;;;;9968317;29;20035;-84
2023/07/31 17:12:53;;;;;;;2.70;1.48;;;;;;;;;;9946928;29;20055;-84
2023/07/31 17:23:57;;;;;;;2.42;1.60;;;;;;;;;;9813775;30;20071;-84
2023/07/31 17:29:38;;;;;;;3.65;2.00;;;;;;;;;;9922439;29;20927;-85
2023/07/31 17:40:42;;;;;;;3.35;2.17;;;;;;;;;;10132178;24;20629;-84
2023/07/31 17:45:43;;;;;;;4.03;2.05;;;;;;;;;;9996929;29;20053;-84
2023/07/31 17:51:09;;;;;;;2.80;1.92;;;;;;;;;;9990480;29;20034;-85
2023/07/31 17:56:10;;;;;;;3.65;2.08;;;;;;;;;;10007384;29;20073;-84
2023/07/31 18:01:11;;;;;;;3.33;2.10;;;;;;;;;;10006908;29;20025;-86
2023/07/31 18:06:47;;;;;;;2.72;2.00;;;;;;;;;;10007186;29;20045;-86
2023/07/31 18:17:27;;;;;;;5.53;3.22;;;;;;;;;;10009410;29;20041;-85
2023/07/31 18:28:07;;;;;;;4.70;2.60;;;;;;;;;;9970625;29;20042;-86
2023/07/31 18:44:52;;;;;;;6.05;3.30;;;;;;;;;;11318032;24;20140;-85
2023/07/31 19:06:54;;;;;;;5.38;3.20;;;;;;;;;;10008042;29;20094;-84
2023/07/31 19:34:33;;;;;;;10.23;3.83;;;;;;;;;;9989684;29;20102;-84
2023/07/31 19:39:34;;;;;;;8.57;4.30;;;;;;;;;;9992840;29;20041;-84
2023/07/31 19:44:55;;;;;;;9.90;5.22;;;;;;;;;;10020670;29;20053;-84
2023/07/31 20:16:07;;;;;;;12.95;5.72;;;;;;;;;;11933094;24;20058;-85
2023/07/31 20:32:00;;;;;;;15.30;5.10;;;;;;;;;;11969585;24;20058;-83
2023/07/31 20:37:01;;;;;;;9.75;5.10;;;;;;;;;;9980367;29;20499;-83
2023/07/31 20:42:02;;;;;;;12.95;5.05;;;;;;;;;;10004327;29;20042;-84
2023/07/31 20:47:03;;;;;;;13.00;5.50;;;;;;;;;;10008147;29;20045;-84
2023/07/31 20:52:05;;;;;;;8.23;5.03;;;;;;;;;;9993163;29;20064;-84
2023/07/31 20:57:06;;;;;;;10.70;5.53;;;;;;;;;;10009510;29;20666;-83
2023/07/31 21:02:07;;;;;;;8.40;4.80;;;;;;;;;;9995783;29;20033;-84
2023/07/31 21:07:10;;;;;;;11.20;4.78;;;;;;;;;;10008281;29;20044;-84
2023/07/31 21:12:11;;;;;;;6.80;4.55;;;;;;;;;;10002414;29;20044;-85
2023/07/31 21:17:13;;;;;;;12.90;5.18;;;;;;;;;;10004788;29;20048;-85
2023/07/31 21:22:14;;;;;;;9.77;5.80;;;;;;;;;;9980303;29;20034;-85
2023/07/31 21:27:15;;;;;;;12.52;5.55;;;;;;;;;;9970195;29;20471;-85
2023/07/31 21:32:16;;;;;;;8.13;4.82;;;;;;;;;;9976891;29;20049;-85
2023/07/31 21:37:17;;;;;;;12.45;5.43;;;;;;;;;;9970204;29;20537;-86
2023/07/31 21:42:18;;;;;;;10.82;5.50;;;;;;;;;;9997773;29;20101;-86
2023/07/31 21:47:19;;;;;;;9.52;5.68;;;;;;;;;;9989505;29;20137;-86
2023/07/31 21:52:20;;;;;;;14.27;6.65;;;;;;;;;;9987229;29;20487;-85
2023/07/31 21:57:21;;;;;;;12.73;5.95;;;;;;;;;;9998954;29;20066;-86
2023/07/31 22:02:22;;;;;;;9.63;6.05;;;;;;;;;;9991056;29;20394;-86
2023/07/31 22:07:23;;;;;;;11.25;6.15;;;;;;;;;;9990892;29;20114;-86
2023/07/31 22:12:24;;;;;;;13.15;5.57;;;;;;;;;;9999154;29;20372;-86
2023/07/31 22:17:25;;;;;;;11.20;5.47;;;;;;;;;;10003772;29;20030;-86
2023/07/31 22:22:26;;;;;;;14.10;5.50;;;;;;;;;;9979136;29;20030;-86
2023/07/31 22:27:27;;;;;;;12.88;5.85;;;;;;;;;;9984664;29;20030;-85
2023/07/31 22:32:28;;;;;;;12.32;6.32;;;;;;;;;;9990913;29;20100;-86
2023/07/31 22:37:29;;;;;;;13.10;6.35;;;;;;;;;;10000031;29;20034;-85
2023/07/31 22:42:32;;;;;;;11.60;5.65;;;;;;;;;;9973293;29;20094;-86
2023/07/31 22:47:34;;;;;;;11.27;5.68;;;;;;;;;;9996637;29;20033;-87
2023/07/31 22:52:36;;;;;;;9.23;5.30;;;;;;;;;;9996986;29;20048;-86
2023/07/31 22:57:37;;;;;;;10.23;5.50;;;;;;;;;;10016073;24;20058;-86
2023/07/31 23:02:38;;;;;;;12.10;5.40;;;;;;;;;;10014751;29;20124;-87
2023/07/31 23:07:39;;;;;;;9.95;5.75;;;;;;;;;;10011513;29;20545;-85
2023/07/31 23:12:40;;;;;;;11.48;5.63;;;;;;;;;;10011492;29;20050;-87
2023/07/31 23:17:41;;;;;;;10.68;5.47;;;;;;;;;;9995305;29;20494;-86
2023/07/31 23:22:42;;;;;;;9.98;5.50;;;;;;;;;;9980356;29;20026;-87
2023/07/31 23:27:44;;;;;;;9.07;5.30;;;;;;;;;;9957437;29;20051;-86
2023/07/31 23:32:45;;;;;;;11.50;4.88;;;;;;;;;;9973700;29;20084;-87
2023/07/31 23:37:46;;;;;;;12.02;5.80;;;;;;;;;;9957190;29;20753;-86
2023/07/31 23:42:47;;;;;;;9.45;5.85;;;;;;;;;;9957040;29;20095;-86
2023/07/31 23:47:48;;;;;;;10.82;5.03;;;;;;;;;;9974255;29;20095;-86
2023/07/31 23:52:50;;;;;;;13.85;6.07;;;;;;;;;;9972439;29;20047;-86
2023/07/31 23:57:51;;;;;;;10.95;5.13;;;;;;;;;;9956147;29;20103;-86
